Time;durP1;ratioP1;P1;durP2;ratioP2;P2;SDS_P1;SDS_P2;PMS_P1;PMS_P2;Temp;Humidity;BMP_temperature;BMP_pressure;BME280_temperature;BME280_humidity;BME280_pressure;Samples;Min_cycle;Max_cycle;Signal;HPM_P1;HPM_P2
2023/05/03 00:01:35;;;;;;;18.80;16.80;;;10.90;36.40;;;;;;5054001;28;20473;-69
2023/05/03 00:04:02;;;;;;;22.33;17.37;;;10.90;36.50;;;;;;5057904;28;20921;-68
2023/05/03 00:06:30;;;;;;;24.70;19.80;;;10.90;36.40;;;;;;5066596;28;20477;-68
2023/05/03 00:08:56;;;;;;;21.30;18.37;;;10.90;36.70;;;;;;5065580;28;20479;-69
2023/05/03 00:11:23;;;;;;;25.40;19.30;;;10.80;36.80;;;;;;5058561;28;20485;-67
2023/05/03 00:13:50;;;;;;;24.40;19.57;;;10.80;36.80;;;;;;5061194;28;20480;-69
2023/05/03 00:16:17;;;;;;;30.43;20.37;;;10.80;37.50;;;;;;5060830;28;21078;-69
2023/05/03 00:18:45;;;;;;;22.27;18.57;;;10.70;36.70;;;;;;5064316;28;20557;-67
2023/05/03 00:21:11;;;;;;;23.47;19.37;;;10.70;37.00;;;;;;5065947;28;20544;-68
2023/05/03 00:23:38;;;;;;;24.00;18.23;;;10.70;36.90;;;;;;5063191;28;20997;-67
2023/05/03 00:26:05;;;;;;;23.83;19.20;;;10.60;36.90;;;;;;5059237;28;20476;-68
2023/05/03 00:28:32;;;;;;;27.50;20.13;;;10.60;36.90;;;;;;5066321;28;20461;-68
2023/05/03 00:31:06;;;;;;;25.23;19.97;;;10.60;37.00;;;;;;5065179;28;20855;-69
2023/05/03 00:33:34;;;;;;;24.33;19.30;;;10.60;37.40;;;;;;5055662;28;20536;-68
2023/05/03 00:36:07;;;;;;;21.50;18.17;;;10.50;37.30;;;;;;5059663;28;20925;-68
2023/05/03 00:38:33;;;;;;;22.10;19.00;;;10.50;37.50;;;;;;5065683;28;20464;-68
2023/05/03 00:41:01;;;;;;;25.30;20.37;;;10.50;37.40;;;;;;5065381;28;20487;-68
2023/05/03 00:43:28;;;;;;;27.83;20.27;;;10.50;37.60;;;;;;5057623;28;20472;-68
2023/05/03 00:45:55;;;;;;;26.23;21.00;;;10.40;37.60;;;;;;5064177;28;21011;-68
2023/05/03 00:48:22;;;;;;;30.53;21.97;;;10.40;37.60;;;;;;5059018;28;20461;-68
2023/05/03 00:50:49;;;;;;;26.80;21.80;;;10.40;37.50;;;;;;5064444;28;20457;-68
2023/05/03 00:53:17;;;;;;;27.00;22.03;;;10.40;37.60;;;;;;5064594;28;20495;-68
2023/05/03 00:55:45;;;;;;;25.90;18.37;;;10.30;37.90;;;;;;5056013;28;20520;-69
2023/05/03 00:58:12;;;;;;;25.03;18.47;;;10.30;38.00;;;;;;5059937;28;20479;-67
2023/05/03 01:00:39;;;;;;;24.37;19.10;;;10.30;38.00;;;;;;5058094;28;20468;-68
2023/05/03 01:03:06;;;;;;;23.80;18.30;;;10.30;38.00;;;;;;5062920;28;20809;-68
2023/05/03 01:05:42;;;;;;;23.03;18.20;;;10.20;37.90;;;;;;5059640;28;20476;-69
2023/05/03 01:08:15;;;;;;;21.20;17.50;;;10.20;37.90;;;;;;5062926;28;20988;-69
2023/05/03 01:10:50;;;;;;;23.43;18.50;;;10.20;37.70;;;;;;5054852;28;21076;-68
2023/05/03 01:13:24;;;;;;;22.23;17.70;;;10.20;37.80;;;;;;5058129;28;21011;-68
2023/05/03 01:15:59;;;;;;;26.83;19.10;;;10.20;37.80;;;;;;5063132;28;20480;-68
2023/05/03 01:18:29;;;;;;;26.23;18.40;;;10.20;38.00;;;;;;5059469;28;20488;-68
2023/05/03 01:20:59;;;;;;;25.47;18.47;;;10.10;37.90;;;;;;5062465;28;20461;-68
2023/05/03 01:23:33;;;;;;;23.37;18.43;;;10.10;37.90;;;;;;5058998;28;20454;-68
2023/05/03 01:26:15;;;;;;;23.80;18.57;;;10.10;38.10;;;;;;5058444;28;20853;-68
2023/05/03 01:28:41;;;;;;;22.87;18.10;;;10.10;38.40;;;;;;5058958;28;20571;-67
2023/05/03 01:31:09;;;;;;;23.27;17.30;;;10.10;38.10;;;;;;5060860;28;20492;-68
2023/05/03 01:33:45;;;;;;;24.20;17.90;;;10.10;38.10;;;;;;5062300;28;20480;-68
2023/05/03 01:36:16;;;;;;;22.47;16.73;;;10.10;38.40;;;;;;5060326;28;20500;-68
2023/05/03 01:38:43;;;;;;;22.60;17.07;;;10.10;38.30;;;;;;5053694;28;20469;-68
2023/05/03 01:41:13;;;;;;;20.07;16.70;;;10.00;38.10;;;;;;5057474;28;20831;-67
2023/05/03 01:43:40;;;;;;;20.73;14.10;;;10.00;38.20;;;;;;5063224;28;20488;-67
2023/05/03 01:46:07;;;;;;;20.63;14.93;;;10.00;38.50;;;;;;5061379;28;20493;-67
2023/05/03 01:48:34;;;;;;;19.97;14.77;;;10.00;38.40;;;;;;5060922;28;21130;-69
2023/05/03 01:51:01;;;;;;;18.80;13.90;;;10.00;38.40;;;;;;5067306;28;20472;-69
2023/05/03 01:53:27;;;;;;;20.27;15.23;;;10.00;38.60;;;;;;5064617;28;20480;-68
2023/05/03 01:55:54;;;;;;;19.17;14.43;;;10.00;38.70;;;;;;5065713;28;20492;-68
2023/05/03 01:58:22;;;;;;;21.80;14.97;;;10.00;38.60;;;;;;5066503;28;20465;-68
2023/05/03 02:00:49;;;;;;;19.40;14.10;;;9.90;38.80;;;;;;5060143;28;20469;-69
2023/05/03 02:03:15;;;;;;;16.70;12.43;;;9.90;38.70;;;;;;5066855;28;20833;-67
2023/05/03 02:05:42;;;;;;;17.93;13.43;;;9.90;38.80;;;;;;5062627;28;20485;-67
2023/05/03 02:08:09;;;;;;;18.73;14.50;;;9.80;38.60;;;;;;5063452;28;20465;-67
2023/05/03 02:10:36;;;;;;;18.97;12.73;;;9.90;38.60;;;;;;5065001;28;20473;-67
2023/05/03 02:13:02;;;;;;;18.07;12.60;;;9.80;38.60;;;;;;5064479;28;20490;-67
2023/05/03 02:15:30;;;;;;;17.17;12.23;;;9.80;38.60;;;;;;5065638;28;20989;-67
2023/05/03 02:18:00;;;;;;;18.27;13.97;;;9.80;38.70;;;;;;5067523;28;20465;-69
2023/05/03 02:20:27;;;;;;;18.90;13.17;;;9.80;38.60;;;;;;5063111;28;20468;-69
2023/05/03 02:22:54;;;;;;;17.30;12.67;;;9.80;38.70;;;;;;5062411;28;20466;-68
2023/05/03 02:25:21;;;;;;;19.07;13.30;;;9.70;38.60;;;;;;5057788;28;20456;-68
2023/05/03 02:27:48;;;;;;;17.80;12.67;;;9.70;38.60;;;;;;5065074;28;20865;-68
2023/05/03 02:30:15;;;;;;;18.00;12.97;;;9.70;38.60;;;;;;5066617;28;20476;-68
2023/05/03 02:32:43;;;;;;;18.07;14.27;;;9.70;38.60;;;;;;5062454;28;20473;-68
2023/05/03 02:35:10;;;;;;;16.70;12.80;;;9.60;38.50;;;;;;5063153;28;20476;-68
2023/05/03 02:37:37;;;;;;;16.10;12.90;;;9.60;38.70;;;;;;5063716;28;20505;-68
2023/05/03 02:40:05;;;;;;;19.00;14.20;;;9.60;38.60;;;;;;5064642;28;21220;-68
2023/05/03 02:42:31;;;;;;;15.53;12.10;;;9.60;38.60;;;;;;5060444;28;20462;-68
2023/05/03 02:44:58;;;;;;;17.87;12.97;;;9.60;38.60;;;;;;5067102;28;20552;-69
2023/05/03 02:47:25;;;;;;;17.50;11.83;;;9.50;38.60;;;;;;5071519;28;20996;-69
2023/05/03 02:49:53;;;;;;;17.47;11.83;;;9.50;38.70;;;;;;5078838;28;20457;-67
2023/05/03 02:52:20;;;;;;;18.60;11.97;;;9.40;38.60;;;;;;5080623;28;20457;-68
2023/05/03 02:54:48;;;;;;;20.60;11.90;;;9.40;38.50;;;;;;5083016;28;20465;-68
2023/05/03 02:57:15;;;;;;;15.90;11.70;;;9.40;38.60;;;;;;5073562;28;20495;-68
2023/05/03 02:59:41;;;;;;;17.27;11.47;;;9.30;38.50;;;;;;5069792;28;20464;-68
2023/05/03 03:02:08;;;;;;;17.27;12.50;;;9.30;38.40;;;;;;5058299;28;20480;-68
2023/05/03 03:04:35;;;;;;;18.93;11.67;;;9.30;38.50;;;;;;5063317;28;20465;-68
2023/05/03 03:07:03;;;;;;;14.43;11.10;;;9.30;38.60;;;;;;5063278;28;20512;-68
2023/05/03 03:09:30;;;;;;;14.37;10.77;;;9.20;38.60;;;;;;5064929;28;20469;-67
2023/05/03 03:11:56;;;;;;;16.27;12.93;;;9.20;38.60;;;;;;5066663;28;21160;-67
2023/05/03 03:14:23;;;;;;;17.27;13.20;;;9.20;38.80;;;;;;5062535;28;21000;-67
2023/05/03 03:16:52;;;;;;;21.57;13.80;;;9.20;38.90;;;;;;5058426;28;20486;-67
2023/05/03 03:19:18;;;;;;;22.00;13.27;;;9.10;39.00;;;;;;5067805;28;20504;-69
2023/05/03 03:21:45;;;;;;;18.83;13.20;;;9.10;39.10;;;;;;5065064;28;20575;-69
2023/05/03 03:24:14;;;;;;;18.83;13.67;;;9.10;39.20;;;;;;5066340;28;20456;-67
2023/05/03 03:26:41;;;;;;;20.20;12.80;;;9.10;39.00;;;;;;5063082;28;20484;-69
2023/05/03 03:29:08;;;;;;;22.37;15.10;;;9.10;39.10;;;;;;5067506;28;20813;-68
2023/05/03 03:31:35;;;;;;;22.33;13.27;;;9.00;39.30;;;;;;5059957;28;20478;-67
2023/05/03 03:34:02;;;;;;;18.23;11.77;;;9.00;39.40;;;;;;5066320;28;20482;-66
2023/05/03 03:36:29;;;;;;;16.47;12.53;;;9.00;40.00;;;;;;5065847;28;20486;-68
2023/05/03 03:38:56;;;;;;;20.03;13.50;;;9.00;39.40;;;;;;5063671;28;20837;-68
2023/05/03 03:41:24;;;;;;;20.93;13.50;;;8.90;39.40;;;;;;5068276;28;20469;-68
2023/05/03 03:43:51;;;;;;;16.90;12.60;;;8.90;39.40;;;;;;5065658;28;20453;-69
2023/05/03 03:46:17;;;;;;;18.63;13.77;;;8.90;39.40;;;;;;5065175;28;20477;-68
2023/05/03 03:48:44;;;;;;;19.03;13.33;;;8.80;39.40;;;;;;5059621;28;20465;-67
2023/05/03 03:51:11;;;;;;;17.00;11.80;;;8.80;39.70;;;;;;5061809;28;20454;-68
2023/05/03 03:53:37;;;;;;;21.00;14.17;;;8.90;39.80;;;;;;5065617;28;20512;-68
2023/05/03 03:56:05;;;;;;;17.70;12.20;;;8.80;39.80;;;;;;5060586;28;20490;-68
2023/05/03 03:58:33;;;;;;;17.93;13.40;;;8.80;39.90;;;;;;5060872;28;21030;-68
2023/05/03 04:01:00;;;;;;;15.67;11.63;;;8.80;39.90;;;;;;5062915;28;20496;-68
2023/05/03 04:03:27;;;;;;;18.23;11.33;;;8.80;39.90;;;;;;5062130;28;20461;-68
2023/05/03 04:05:53;;;;;;;19.17;12.23;;;8.70;39.90;;;;;;5060674;28;20477;-68
2023/05/03 04:08:20;;;;;;;21.17;14.30;;;8.70;39.90;;;;;;5063232;28;20910;-68
2023/05/03 04:10:47;;;;;;;18.13;11.97;;;8.70;40.00;;;;;;5064291;28;20462;-68
2023/05/03 04:13:13;;;;;;;19.23;12.77;;;8.60;40.00;;;;;;5062139;28;20485;-68
2023/05/03 04:15:42;;;;;;;17.93;13.10;;;8.60;40.20;;;;;;5063285;28;21103;-68
2023/05/03 04:18:08;;;;;;;20.37;14.70;;;8.60;40.30;;;;;;5056421;28;20461;-68
2023/05/03 04:20:35;;;;;;;20.10;12.77;;;8.70;40.30;;;;;;5059588;28;20461;-64
2023/05/03 04:23:02;;;;;;;20.13;13.07;;;8.70;40.30;;;;;;5054594;28;20489;-65
2023/05/03 04:25:30;;;;;;;17.60;13.00;;;8.70;40.50;;;;;;5058510;28;20470;-65
2023/05/03 04:27:57;;;;;;;18.63;12.87;;;8.80;40.50;;;;;;5065393;28;20464;-66
2023/05/03 04:30:24;;;;;;;18.60;12.03;;;8.90;40.40;;;;;;5073263;22;20494;-71
2023/05/03 04:32:54;;;;;;;17.60;12.27;;;8.90;40.40;;;;;;5057920;28;20476;-69
2023/05/03 04:35:21;;;;;;;18.37;12.50;;;9.00;40.40;;;;;;5065817;28;20465;-67
2023/05/03 04:37:48;;;;;;;16.57;11.53;;;9.10;40.40;;;;;;5059831;28;20522;-69
2023/05/03 04:40:16;;;;;;;17.73;12.37;;;9.10;40.10;;;;;;5068372;28;20461;-69
2023/05/03 04:42:43;;;;;;;21.30;13.13;;;9.10;41.00;;;;;;5064794;28;20473;-68
2023/05/03 04:45:10;;;;;;;18.13;13.10;;;9.20;40.10;;;;;;5064121;28;20587;-67
2023/05/03 04:47:37;;;;;;;18.83;13.53;;;9.30;40.00;;;;;;5060133;28;20559;-68
2023/05/03 04:50:07;;;;;;;20.40;13.37;;;9.30;39.80;;;;;;5068587;28;20485;-68
2023/05/03 04:52:34;;;;;;;16.30;11.73;;;9.40;39.70;;;;;;5064747;28;20465;-69
2023/05/03 04:55:02;;;;;;;22.73;12.00;;;9.50;39.60;;;;;;5062310;28;20465;-69
2023/05/03 04:57:31;;;;;;;16.77;11.47;;;9.50;39.50;;;;;;5062557;28;20489;-69
2023/05/03 04:59:58;;;;;;;17.20;11.90;;;9.60;39.50;;;;;;5062259;28;20834;-68
2023/05/03 05:02:25;;;;;;;18.70;11.90;;;9.70;39.50;;;;;;5066598;28;20465;-69
2023/05/03 05:04:51;;;;;;;18.17;12.67;;;9.70;39.40;;;;;;5060182;28;20471;-69
2023/05/03 05:07:20;;;;;;;19.17;13.30;;;9.80;39.10;;;;;;5069563;28;20991;-69
2023/05/03 05:09:46;;;;;;;20.77;11.90;;;9.90;39.00;;;;;;5061349;28;21217;-69
2023/05/03 05:12:13;;;;;;;18.70;12.70;;;10.00;38.90;;;;;;5063249;28;20464;-70
2023/05/03 05:14:40;;;;;;;17.30;12.40;;;10.00;38.80;;;;;;5068596;28;20484;-70
2023/05/03 05:17:06;;;;;;;15.30;11.60;;;10.00;38.80;;;;;;5070042;28;20988;-69
2023/05/03 05:19:33;;;;;;;17.67;12.20;;;9.90;38.90;;;;;;5065518;28;20461;-68
2023/05/03 05:22:00;;;;;;;18.70;13.03;;;9.90;38.90;;;;;;5059718;28;20961;-69
2023/05/03 05:24:28;;;;;;;18.40;12.57;;;9.90;39.10;;;;;;5067521;28;20462;-68
2023/05/03 05:26:55;;;;;;;19.07;14.20;;;9.80;39.10;;;;;;5064138;28;20847;-69
2023/05/03 05:29:21;;;;;;;16.63;12.70;;;9.80;39.40;;;;;;5063037;28;20465;-69
2023/05/03 05:31:48;;;;;;;21.90;14.50;;;9.90;39.50;;;;;;5065901;28;20488;-69
2023/05/03 05:34:15;;;;;;;20.93;14.47;;;9.90;39.80;;;;;;5063666;28;21000;-68
2023/05/03 05:36:42;;;;;;;18.03;13.00;;;10.00;39.70;;;;;;5065695;28;20488;-68
2023/05/03 05:39:09;;;;;;;21.90;14.33;;;10.00;39.80;;;;;;5065296;28;23379;-68
2023/05/03 05:41:37;;;;;;;17.80;12.77;;;10.00;40.10;;;;;;5067871;28;20469;-68
2023/05/03 05:44:04;;;;;;;21.50;13.07;;;10.10;40.10;;;;;;5058393;28;20457;-68
2023/05/03 05:46:31;;;;;;;19.37;13.83;;;10.10;40.00;;;;;;5057451;28;20491;-68
2023/05/03 05:48:58;;;;;;;22.33;15.23;;;10.10;40.20;;;;;;5065263;28;20465;-68
2023/05/03 05:51:26;;;;;;;20.10;15.10;;;10.10;40.20;;;;;;5063715;28;20464;-69
2023/05/03 05:53:53;;;;;;;18.47;14.23;;;10.20;40.00;;;;;;5064492;28;20477;-69
2023/05/03 05:56:20;;;;;;;21.80;16.30;;;10.30;40.20;;;;;;5060176;28;20516;-69
2023/05/03 05:58:48;;;;;;;23.87;15.43;;;10.40;40.20;;;;;;5065323;28;21230;-68
2023/05/03 06:01:15;;;;;;;21.93;15.53;;;10.40;40.00;;;;;;5060281;28;20491;-69
2023/05/03 06:03:42;;;;;;;19.33;14.90;;;10.50;40.10;;;;;;5062683;28;20493;-69
2023/05/03 06:06:09;;;;;;;22.03;15.00;;;10.60;39.50;;;;;;5060572;28;20491;-69
2023/05/03 06:08:36;;;;;;;21.03;15.30;;;10.60;39.40;;;;;;5058076;28;20465;-68
2023/05/03 06:11:02;;;;;;;21.03;16.70;;;10.70;39.10;;;;;;5058879;28;21061;-68
2023/05/03 06:13:30;;;;;;;19.07;14.40;;;10.70;39.00;;;;;;5064113;28;20482;-69
2023/05/03 06:15:59;;;;;;;19.03;14.20;;;10.70;38.90;;;;;;5055174;28;20960;-68
2023/05/03 06:18:25;;;;;;;20.80;15.90;;;10.80;38.60;;;;;;5063205;28;20465;-68
2023/05/03 06:20:52;;;;;;;23.60;15.23;;;10.80;38.70;;;;;;5071901;28;20551;-68
2023/05/03 06:23:19;;;;;;;21.40;15.80;;;10.90;38.50;;;;;;5063101;28;20460;-69
2023/05/03 06:25:47;;;;;;;20.20;15.30;;;10.90;38.30;;;;;;5059892;28;20567;-69
2023/05/03 06:28:14;;;;;;;21.63;17.20;;;10.90;38.10;;;;;;5068415;28;20465;-69
2023/05/03 06:30:41;;;;;;;23.10;16.33;;;10.90;38.20;;;;;;5059177;28;20476;-69
2023/05/03 06:33:12;;;;;;;22.60;16.37;;;10.90;38.00;;;;;;5061231;28;20461;-69
2023/05/03 06:35:38;;;;;;;27.30;17.60;;;10.90;38.10;;;;;;5060682;28;20557;-68
2023/05/03 06:38:05;;;;;;;24.87;18.20;;;10.90;38.00;;;;;;5086092;28;20460;-68
2023/05/03 06:40:32;;;;;;;25.17;18.50;;;10.90;38.00;;;;;;5081599;28;20450;-69
2023/05/03 06:42:59;;;;;;;24.50;18.37;;;10.90;38.20;;;;;;5063347;28;20462;-69
2023/05/03 06:45:26;;;;;;;25.57;18.80;;;10.90;38.00;;;;;;5056121;28;20520;-67
2023/05/03 06:47:52;;;;;;;23.60;17.43;;;11.00;38.00;;;;;;5084186;22;20552;-67
2023/05/03 06:50:21;;;;;;;24.63;17.80;;;11.00;37.80;;;;;;5060957;22;20504;-67
2023/05/03 06:52:47;;;;;;;23.93;17.53;;;10.90;37.90;;;;;;5054691;28;20458;-66
2023/05/03 06:55:14;;;;;;;25.27;19.10;;;11.00;38.00;;;;;;5053283;28;20489;-69
2023/05/03 06:57:41;;;;;;;22.00;16.23;;;10.90;38.00;;;;;;5062107;28;21198;-68
2023/05/03 07:00:10;;;;;;;24.50;18.97;;;10.90;38.10;;;;;;5062672;28;20513;-69
2023/05/03 07:02:37;;;;;;;25.63;18.23;;;10.80;38.40;;;;;;5057650;28;20481;-69
2023/05/03 07:05:04;;;;;;;26.00;18.30;;;10.80;39.00;;;;;;5061099;28;20853;-69
2023/05/03 07:07:33;;;;;;;25.40;17.80;;;10.80;39.30;;;;;;5060805;28;20465;-68
2023/05/03 07:10:00;;;;;;;29.83;19.47;;;10.80;39.30;;;;;;5054179;28;20525;-68
2023/05/03 07:12:27;;;;;;;26.50;18.40;;;10.80;39.10;;;;;;5064176;28;20469;-68
2023/05/03 07:14:54;;;;;;;24.50;17.90;;;10.90;39.10;;;;;;5052061;28;20989;-69
2023/05/03 07:17:21;;;;;;;23.63;16.90;;;10.90;39.20;;;;;;5055716;28;20465;-69
2023/05/03 07:19:49;;;;;;;26.10;20.50;;;10.90;39.20;;;;;;5055194;28;21352;-67
2023/05/03 07:22:16;;;;;;;24.97;17.77;;;11.00;39.80;;;;;;5057638;28;20465;-68
2023/05/03 07:24:44;;;;;;;24.50;18.17;;;11.10;38.90;;;;;;5060306;28;20537;-68
2023/05/03 07:27:14;;;;;;;23.03;17.50;;;11.30;38.70;;;;;;5060492;28;20468;-67
2023/05/03 07:29:41;;;;;;;22.80;16.17;;;11.30;38.20;;;;;;5060311;28;20485;-68
2023/05/03 07:32:08;;;;;;;23.97;17.43;;;11.30;37.90;;;;;;5060892;28;21178;-67
2023/05/03 07:34:35;;;;;;;24.77;16.77;;;11.40;37.70;;;;;;5061135;28;20489;-67
2023/05/03 07:37:01;;;;;;;20.57;15.70;;;11.40;37.50;;;;;;5057309;28;20977;-70
2023/05/03 07:39:28;;;;;;;23.53;16.90;;;11.40;37.20;;;;;;5061444;28;20477;-71
2023/05/03 07:41:56;;;;;;;24.30;18.20;;;11.40;37.00;;;;;;5057294;28;20465;-70
2023/05/03 07:44:23;;;;;;;23.33;18.20;;;11.30;37.10;;;;;;5056131;28;20458;-70
2023/05/03 07:46:50;;;;;;;26.97;18.40;;;11.30;37.10;;;;;;5057524;28;20469;-66
2023/05/03 07:49:17;;;;;;;25.33;17.17;;;11.40;37.00;;;;;;5059092;28;20504;-67
2023/05/03 07:51:43;;;;;;;24.07;17.47;;;11.40;36.90;;;;;;5066222;28;20491;-67
2023/05/03 07:54:10;;;;;;;20.33;15.97;;;11.40;37.00;;;;;;5058631;28;21250;-67
2023/05/03 07:56:37;;;;;;;22.00;16.87;;;11.50;37.20;;;;;;5064629;28;20980;-67
2023/05/03 07:59:05;;;;;;;23.07;16.87;;;11.60;37.00;;;;;;5059259;28;20490;-68
2023/05/03 08:01:32;;;;;;;23.60;16.43;;;11.80;36.60;;;;;;5063266;28;20829;-67
2023/05/03 08:03:58;;;;;;;24.90;16.80;;;11.80;36.20;;;;;;5094452;22;20491;-67
2023/05/03 08:06:26;;;;;;;23.20;16.60;;;11.90;35.80;;;;;;5085012;28;20465;-67
2023/05/03 08:08:53;;;;;;;23.90;16.97;;;11.80;35.60;;;;;;5086515;28;20488;-68
2023/05/03 08:11:20;;;;;;;24.97;18.20;;;11.80;35.60;;;;;;5080692;28;20551;-71
2023/05/03 08:13:46;;;;;;;22.47;16.87;;;11.90;35.80;;;;;;5074280;28;20503;-70
2023/05/03 08:16:15;;;;;;;24.97;18.37;;;11.90;35.70;;;;;;5083327;28;20456;-68
2023/05/03 08:18:41;;;;;;;26.17;18.13;;;12.10;35.70;;;;;;5079919;28;20991;-68
2023/05/03 08:21:10;;;;;;;22.67;17.70;;;12.20;35.50;;;;;;5083778;28;20465;-68
2023/05/03 08:23:37;;;;;;;26.23;17.07;;;12.20;35.10;;;;;;5082375;28;21086;-68
2023/05/03 08:26:06;;;;;;;22.20;17.00;;;12.30;34.80;;;;;;5080992;28;20465;-68
2023/05/03 08:28:33;;;;;;;23.77;17.60;;;12.20;35.00;;;;;;5080925;28;20492;-68
2023/05/03 08:31:02;;;;;;;22.73;16.20;;;12.10;34.20;;;;;;5086446;28;20472;-68
2023/05/03 08:33:30;;;;;;;26.00;17.63;;;12.10;34.10;;;;;;5075480;22;20532;-68
2023/05/03 08:35:57;;;;;;;23.40;16.83;;;12.20;34.30;;;;;;5063934;28;20476;-68
2023/05/03 08:38:24;;;;;;;23.93;17.03;;;12.30;34.40;;;;;;5062802;28;20534;-67
2023/05/03 08:40:54;;;;;;;23.70;16.20;;;12.40;33.90;;;;;;5062675;28;20567;-67
2023/05/03 08:43:22;;;;;;;25.67;17.73;;;12.30;34.00;;;;;;5062246;28;20482;-67
2023/05/03 08:45:49;;;;;;;23.77;17.37;;;12.30;33.40;;;;;;5042850;28;20825;-69
2023/05/03 08:48:16;;;;;;;24.27;17.03;;;12.30;33.40;;;;;;5044767;28;20458;-68
2023/05/03 08:50:44;;;;;;;25.07;17.70;;;12.20;33.60;;;;;;5042818;28;20462;-71
2023/05/03 08:53:11;;;;;;;24.70;17.37;;;12.30;33.90;;;;;;5047334;28;20490;-66
2023/05/03 08:55:38;;;;;;;24.30;17.20;;;12.40;33.70;;;;;;5049287;28;20489;-66
2023/05/03 08:58:09;;;;;;;25.20;17.20;;;12.60;33.40;;;;;;5046918;28;20924;-67
2023/05/03 09:00:37;;;;;;;25.47;17.30;;;12.70;33.20;;;;;;5041699;28;20556;-67
2023/05/03 09:05:34;;;;;;;24.43;16.77;;;12.90;32.50;;;;;;5054623;28;20477;-69
2023/05/03 09:08:03;;;;;;;22.20;17.10;;;13.10;32.20;;;;;;5064713;28;23345;-68
2023/05/03 09:10:30;;;;;;;25.77;18.30;;;13.20;32.00;;;;;;5065921;28;21189;-67
2023/05/03 09:13:00;;;;;;;23.03;17.73;;;13.20;31.90;;;;;;5063811;28;20469;-68
2023/05/03 09:15:28;;;;;;;22.07;17.40;;;13.30;31.00;;;;;;5082208;28;21031;-71
2023/05/03 09:18:09;;;;;;;24.23;17.30;;;13.40;30.80;;;;;;5060572;28;20472;-71
2023/05/03 09:20:37;;;;;;;22.37;16.60;;;13.60;30.40;;;;;;5082637;28;20513;-70
2023/05/03 09:23:07;;;;;;;23.90;17.23;;;13.70;29.60;;;;;;5080763;28;20477;-70
2023/05/03 09:25:44;;;;;;;20.00;14.73;;;13.70;29.00;;;;;;5079400;28;20952;-70
2023/05/03 09:28:11;;;;;;;23.10;17.07;;;13.80;29.00;;;;;;5076851;28;20463;-70
2023/05/03 09:30:38;;;;;;;23.87;17.50;;;14.00;28.90;;;;;;5076389;28;20483;-70
2023/05/03 09:33:05;;;;;;;24.13;17.20;;;14.10;28.30;;;;;;5077685;28;20472;-70
2023/05/03 09:35:32;;;;;;;21.90;17.40;;;14.20;27.90;;;;;;5078857;28;20684;-69
2023/05/03 09:37:58;;;;;;;23.43;16.97;;;14.30;27.60;;;;;;5096267;28;20467;-69
2023/05/03 09:40:28;;;;;;;22.40;15.90;;;14.30;27.40;;;;;;5084869;28;20467;-68
2023/05/03 09:43:06;;;;;;;22.37;15.20;;;14.30;27.20;;;;;;5082595;28;20464;-70
2023/05/03 09:45:33;;;;;;;21.93;17.27;;;14.30;27.40;;;;;;5077856;28;20960;-69
2023/05/03 09:48:01;;;;;;;26.87;17.97;;;14.30;27.10;;;;;;5078419;28;20492;-69
2023/05/03 09:50:29;;;;;;;19.60;15.90;;;14.40;26.40;;;;;;5074173;28;20465;-68
2023/05/03 09:52:56;;;;;;;18.27;14.80;;;14.50;26.30;;;;;;5078044;28;20570;-69
2023/05/03 09:55:25;;;;;;;21.93;16.20;;;14.50;26.50;;;;;;5079892;28;20483;-70
2023/05/03 09:57:56;;;;;;;22.13;17.93;;;14.60;26.20;;;;;;5075685;28;20475;-69
2023/05/03 10:00:24;;;;;;;19.73;15.43;;;14.60;25.90;;;;;;5080587;28;20467;-70
2023/05/03 10:02:54;;;;;;;18.33;15.37;;;14.70;25.90;;;;;;5081445;28;20464;-69
2023/05/03 10:05:22;;;;;;;19.70;15.97;;;14.80;25.40;;;;;;5074024;28;20557;-69
2023/05/03 10:07:52;;;;;;;18.30;14.07;;;14.90;25.40;;;;;;5074910;28;20472;-68
2023/05/03 10:10:20;;;;;;;18.83;14.93;;;15.10;25.00;;;;;;5083998;28;20552;-69
2023/05/03 10:12:48;;;;;;;16.63;14.03;;;15.50;23.50;;;;;;5087988;28;20468;-68
2023/05/03 10:15:18;;;;;;;17.13;14.93;;;16.10;22.40;;;;;;5087796;28;20476;-70
2023/05/03 10:17:46;;;;;;;16.10;13.70;;;16.60;20.90;;;;;;5086370;28;20468;-69
2023/05/03 10:20:25;;;;;;;16.30;13.50;;;16.80;19.80;;;;;;5086604;28;20469;-68
2023/05/03 10:23:11;;;;;;;20.23;14.73;;;16.70;19.90;;;;;;5084453;28;20464;-68
2023/05/03 10:25:39;;;;;;;18.37;14.67;;;16.70;20.00;;;;;;5087794;28;20463;-69
2023/05/03 10:28:07;;;;;;;17.83;14.30;;;16.80;19.80;;;;;;5085586;28;20543;-68
2023/05/03 10:30:36;;;;;;;18.07;14.40;;;17.10;19.10;;;;;;5088635;28;20475;-69
2023/05/03 10:33:28;;;;;;;16.00;13.70;;;17.30;18.90;;;;;;5091240;28;20465;-68
2023/05/03 10:35:55;;;;;;;13.97;12.17;;;17.60;18.00;;;;;;5081581;28;20488;-68
2023/05/03 10:38:23;;;;;;;15.63;13.77;;;17.90;17.60;;;;;;5085539;28;20537;-69
2023/05/03 10:40:51;;;;;;;15.13;13.47;;;18.10;16.80;;;;;;5083690;28;20464;-69
2023/05/03 10:43:47;;;;;;;17.87;13.60;;;18.40;16.40;;;;;;5085181;28;20487;-69
2023/05/03 10:46:35;;;;;;;14.77;12.40;;;18.80;15.80;;;;;;5086004;28;20453;-69
2023/05/03 10:49:21;;;;;;;15.53;11.50;;;19.00;14.40;;;;;;5081436;28;20488;-69
2023/05/03 10:51:48;;;;;;;16.40;13.07;;;18.70;14.20;;;;;;5077560;28;20468;-70
2023/05/03 10:54:16;;;;;;;13.47;11.10;;;18.50;14.40;;;;;;5081168;28;20487;-69
2023/05/03 10:56:54;;;;;;;15.30;12.07;;;18.40;15.10;;;;;;5079052;28;20554;-69
2023/05/03 10:59:25;;;;;;;17.30;11.97;;;18.40;15.30;;;;;;5086769;28;20459;-69
2023/05/03 11:01:54;;;;;;;13.97;12.13;;;18.80;14.70;;;;;;5087360;28;20895;-70
2023/05/03 11:04:33;;;;;;;14.80;12.30;;;19.10;15.00;;;;;;5075499;28;20483;-69
2023/05/03 11:07:00;;;;;;;12.50;11.20;;;19.10;13.30;;;;;;5076699;28;20473;-69
2023/05/03 11:09:32;;;;;;;15.90;13.10;;;19.10;13.60;;;;;;5083856;28;20474;-70
2023/05/03 11:11:59;;;;;;;18.40;12.90;;;19.20;13.60;;;;;;5079505;28;21093;-69
2023/05/03 11:14:25;;;;;;;13.40;12.00;;;19.30;13.60;;;;;;5082606;28;20472;-70
2023/05/03 11:16:56;;;;;;;13.10;11.70;;;19.30;13.30;;;;;;5082794;28;20464;-70
2023/05/03 11:19:24;;;;;;;15.40;13.60;;;19.30;13.90;;;;;;5081489;28;20844;-69
2023/05/03 11:21:51;;;;;;;15.40;12.67;;;19.40;14.10;;;;;;5078816;28;21493;-69
2023/05/03 11:24:18;;;;;;;15.40;12.30;;;19.50;14.00;;;;;;5079535;28;20848;-69
2023/05/03 11:26:44;;;;;;;13.13;10.93;;;19.60;13.50;;;;;;5083454;28;20971;-69
2023/05/03 11:29:12;;;;;;;13.23;10.73;;;19.60;12.60;;;;;;5075780;28;20453;-70
2023/05/03 11:31:41;;;;;;;12.37;11.07;;;19.50;12.40;;;;;;5081782;28;21013;-68
2023/05/03 11:34:10;;;;;;;14.20;10.27;;;19.50;13.70;;;;;;5083537;28;20930;-70
2023/05/03 11:36:37;;;;;;;12.37;10.60;;;19.60;13.30;;;;;;5081377;28;20510;-69
2023/05/03 11:39:05;;;;;;;11.00;9.27;;;19.90;12.60;;;;;;5083622;28;20460;-70
2023/05/03 11:41:32;;;;;;;11.50;10.00;;;20.00;12.10;;;;;;5086356;28;20472;-69
2023/05/03 11:43:59;;;;;;;11.07;9.67;;;19.70;9.90;;;;;;5084724;28;20512;-69
2023/05/03 11:46:28;;;;;;;12.30;10.20;;;19.40;11.00;;;;;;5087878;28;20463;-69
2023/05/03 11:48:56;;;;;;;12.93;10.00;;;19.30;11.30;;;;;;5086367;28;20896;-70
2023/05/03 11:51:26;;;;;;;13.60;9.50;;;19.40;11.90;;;;;;5087727;28;20460;-70
2023/05/03 11:53:52;;;;;;;17.90;12.63;;;19.50;12.10;;;;;;5085125;28;20546;-69
2023/05/03 11:56:21;;;;;;;12.40;11.20;;;19.60;12.50;;;;;;5085089;28;20476;-69
2023/05/03 11:58:56;;;;;;;12.50;10.73;;;19.60;12.00;;;;;;5082322;28;20469;-69
2023/05/03 12:01:23;;;;;;;13.00;10.93;;;19.60;11.70;;;;;;5080205;28;20471;-69
2023/05/03 12:03:54;;;;;;;12.03;10.10;;;19.30;10.80;;;;;;5085216;28;20485;-70
2023/05/03 12:06:22;;;;;;;10.83;9.70;;;19.20;11.00;;;;;;5082897;28;20507;-69
2023/05/03 12:08:50;;;;;;;13.17;10.33;;;19.10;11.00;;;;;;5081161;28;20456;-69
2023/05/03 12:11:17;;;;;;;13.10;10.57;;;19.10;12.00;;;;;;5083727;28;20464;-69
2023/05/03 12:13:44;;;;;;;12.13;9.87;;;19.30;11.70;;;;;;5083426;28;21013;-69
2023/05/03 12:16:13;;;;;;;11.53;8.50;;;19.40;12.40;;;;;;5084527;28;20481;-69
2023/05/03 12:18:51;;;;;;;11.27;10.07;;;19.50;11.10;;;;;;5086178;28;21147;-70
2023/05/03 12:21:19;;;;;;;11.07;8.50;;;19.50;10.80;;;;;;5083066;28;20464;-69
2023/05/03 12:23:48;;;;;;;10.53;8.70;;;19.40;9.70;;;;;;5086654;28;20484;-69
2023/05/03 12:26:17;;;;;;;9.80;8.80;;;19.30;10.20;;;;;;5086571;28;20460;-70
2023/05/03 12:28:44;;;;;;;10.10;8.30;;;19.20;10.60;;;;;;5087943;28;20464;-69
2023/05/03 12:31:11;;;;;;;10.50;9.40;;;19.10;10.50;;;;;;5083524;28;20468;-70
2023/05/03 12:33:38;;;;;;;13.13;10.27;;;19.00;10.70;;;;;;5097972;28;20745;-69
2023/05/03 12:36:06;;;;;;;10.30;8.50;;;19.00;11.00;;;;;;5093979;28;20480;-69
2023/05/03 12:38:33;;;;;;;11.33;8.73;;;19.00;11.60;;;;;;5083013;28;20904;-69